Time;durP1;ratioP1;P1;durP2;ratioP2;P2;SDS_P1;SDS_P2;PMS_P1;PMS_P2;Temp;Humidity;BMP_temperature;BMP_pressure;BME280_temperature;BME280_humidity;BME280_pressure;Samples;Min_cycle;Max_cycle;Signal;HPM_P1;HPM_P2
2022/08/27 00:01:24;;;;;;;3.53;1.30;;;18.50;99.90;;;;;;5057378;28;20660;-42
2022/08/27 00:03:52;;;;;;;6.83;1.27;;;18.50;99.90;;;;;;5057049;28;20187;-41
2022/08/27 00:06:19;;;;;;;4.97;1.43;;;18.50;99.90;;;;;;5056631;28;20268;-41
2022/08/27 00:08:46;;;;;;;5.17;1.40;;;18.50;99.90;;;;;;5038755;28;20176;-40
2022/08/27 00:11:12;;;;;;;5.70;1.33;;;18.50;99.90;;;;;;5056533;28;20226;-42
2022/08/27 00:13:41;;;;;;;6.27;1.80;;;18.40;99.90;;;;;;5056507;28;20202;-41
2022/08/27 00:16:10;;;;;;;7.07;1.63;;;18.40;99.90;;;;;;5056499;28;20199;-41
2022/08/27 00:18:39;;;;;;;3.50;1.20;;;18.40;99.90;;;;;;5056315;28;20238;-40
2022/08/27 00:21:07;;;;;;;4.83;1.40;;;18.40;99.90;;;;;;5056311;28;20200;-40
2022/08/27 00:23:36;;;;;;;6.07;1.50;;;18.40;99.90;;;;;;5038447;28;20219;-38
2022/08/27 00:26:03;;;;;;;4.63;1.10;;;18.30;99.90;;;;;;5021891;28;20192;-40
2022/08/27 00:28:29;;;;;;;3.87;1.40;;;18.30;99.90;;;;;;5056313;28;20592;-41
2022/08/27 00:30:56;;;;;;;3.57;1.40;;;18.30;99.90;;;;;;5056076;28;20235;-41
2022/08/27 00:33:22;;;;;;;3.80;1.30;;;18.30;99.90;;;;;;5056119;28;20196;-41
2022/08/27 00:35:48;;;;;;;5.73;1.60;;;18.30;99.90;;;;;;5056187;28;20179;-41
2022/08/27 00:38:14;;;;;;;3.60;1.10;;;18.30;99.90;;;;;;5056055;28;20543;-39
2022/08/27 00:40:41;;;;;;;5.30;1.50;;;18.20;99.90;;;;;;5055275;28;20176;-42
2022/08/27 00:43:07;;;;;;;5.37;1.50;;;18.30;99.90;;;;;;5056158;28;20184;-41
2022/08/27 00:45:42;;;;;;;5.00;1.37;;;18.20;99.90;;;;;;5056177;28;20551;-40
2022/08/27 00:48:20;;;;;;;4.67;1.50;;;18.20;99.90;;;;;;5056193;28;20226;-41
2022/08/27 00:50:50;;;;;;;5.23;1.37;;;18.20;99.90;;;;;;5055995;28;20239;-41
2022/08/27 00:53:24;;;;;;;3.83;1.03;;;18.20;99.90;;;;;;5056039;28;20192;-41
2022/08/27 00:56:19;;;;;;;5.07;1.47;;;18.20;99.90;;;;;;5055768;28;20264;-40
2022/08/27 00:58:50;;;;;;;8.00;1.50;;;18.10;99.90;;;;;;5055699;28;20219;-41
2022/08/27 01:01:19;;;;;;;3.90;1.73;;;18.10;99.90;;;;;;5055948;28;20231;-41
2022/08/27 01:03:49;;;;;;;3.60;1.40;;;18.10;99.90;;;;;;5055689;28;20180;-41
2022/08/27 01:06:23;;;;;;;7.93;1.83;;;18.10;99.90;;;;;;5055943;28;20675;-43
2022/08/27 01:08:56;;;;;;;4.97;1.40;;;18.10;99.90;;;;;;5055662;28;20172;-45
2022/08/27 01:11:23;;;;;;;4.20;1.53;;;18.10;99.90;;;;;;5055443;28;20204;-43
2022/08/27 01:13:52;;;;;;;5.20;1.47;;;18.10;99.90;;;;;;5055631;28;20212;-45
2022/08/27 01:16:26;;;;;;;5.97;1.33;;;18.10;99.90;;;;;;5055278;28;20188;-44
2022/08/27 01:18:54;;;;;;;5.43;1.70;;;18.00;99.90;;;;;;5037574;28;20173;-44
2022/08/27 01:21:45;;;;;;;7.57;1.60;;;18.00;99.90;;;;;;5055219;28;20243;-42
2022/08/27 01:24:40;;;;;;;7.00;1.50;;;18.00;99.90;;;;;;5037416;28;20172;-45
2022/08/27 01:27:09;;;;;;;4.37;1.53;;;18.00;99.90;;;;;;5055371;28;20160;-44
2022/08/27 01:29:44;;;;;;;5.17;1.47;;;18.00;99.90;;;;;;5055423;28;20190;-45
2022/08/27 01:32:17;;;;;;;4.50;1.73;;;18.00;99.90;;;;;;5054577;28;20219;-45
2022/08/27 01:34:50;;;;;;;5.00;1.60;;;18.00;99.90;;;;;;5038543;28;20321;-44
2022/08/27 01:37:25;;;;;;;3.80;1.40;;;18.00;99.90;;;;;;5037497;28;20194;-43
2022/08/27 01:40:02;;;;;;;6.93;1.80;;;17.90;99.90;;;;;;5056451;28;20161;-44
2022/08/27 01:42:38;;;;;;;5.33;1.60;;;17.90;99.90;;;;;;5055831;28;20187;-44
2022/08/27 01:45:12;;;;;;;6.87;1.50;;;17.90;99.90;;;;;;5055754;28;20243;-43
2022/08/27 01:47:53;;;;;;;2.57;1.30;;;17.90;99.90;;;;;;5056094;28;20609;-44
2022/08/27 01:50:35;;;;;;;7.53;1.43;;;17.90;99.90;;;;;;5052579;28;20188;-42
2022/08/27 01:53:10;;;;;;;5.70;1.90;;;17.90;99.90;;;;;;5057783;28;20255;-44
2022/08/27 01:55:47;;;;;;;2.60;1.30;;;17.80;99.90;;;;;;5065321;28;20172;-44
2022/08/27 01:58:16;;;;;;;6.83;1.67;;;17.80;99.90;;;;;;5066095;28;20208;-44
2022/08/27 02:00:44;;;;;;;4.17;1.43;;;17.80;99.90;;;;;;5066009;28;20211;-45
2022/08/27 02:03:17;;;;;;;5.63;1.53;;;17.80;99.90;;;;;;5065913;28;20183;-44
2022/08/27 02:05:47;;;;;;;5.67;1.97;;;17.80;99.90;;;;;;5064261;28;20223;-44
2022/08/27 02:08:16;;;;;;;6.60;1.57;;;17.80;99.90;;;;;;5063428;28;20683;-44
2022/08/27 02:10:48;;;;;;;2.53;1.30;;;17.80;99.90;;;;;;5063505;28;20208;-44
2022/08/27 02:13:18;;;;;;;4.90;1.70;;;17.70;99.90;;;;;;5063325;28;20200;-45
2022/08/27 02:15:46;;;;;;;4.60;1.40;;;17.70;99.90;;;;;;5062361;28;20271;-42
2022/08/27 02:18:15;;;;;;;5.23;1.53;;;17.70;99.90;;;;;;5063040;28;20175;-45
2022/08/27 02:20:53;;;;;;;2.60;1.30;;;17.70;99.90;;;;;;5063269;28;20180;-45
2022/08/27 02:23:19;;;;;;;4.00;1.33;;;17.70;99.90;;;;;;5045557;28;20652;-44
2022/08/27 02:25:50;;;;;;;5.57;1.40;;;17.60;99.90;;;;;;5063701;28;20195;-44
2022/08/27 02:28:16;;;;;;;4.43;1.20;;;17.60;99.90;;;;;;5044365;28;20252;-44
2022/08/27 02:30:44;;;;;;;5.13;1.60;;;17.70;99.90;;;;;;5063553;28;20200;-43
2022/08/27 02:33:12;;;;;;;8.17;1.50;;;17.70;99.90;;;;;;5063382;28;20206;-45
2022/08/27 02:35:39;;;;;;;6.00;1.60;;;17.60;99.90;;;;;;5044806;28;20187;-44
2022/08/27 02:38:08;;;;;;;6.10;1.47;;;17.60;99.90;;;;;;5062865;28;20169;-45
2022/08/27 02:40:36;;;;;;;3.20;1.50;;;17.60;99.90;;;;;;5063047;28;20234;-40
2022/08/27 02:43:05;;;;;;;6.90;1.70;;;17.60;99.90;;;;;;5054286;28;20236;-41
2022/08/27 02:45:31;;;;;;;6.13;1.93;;;17.60;99.90;;;;;;5053642;28;20184;-41
2022/08/27 02:48:03;;;;;;;3.77;1.53;;;17.60;99.90;;;;;;5053683;28;20263;-41
2022/08/27 02:50:35;;;;;;;4.77;1.60;;;17.60;99.90;;;;;;5053833;28;20191;-39
2022/08/27 02:53:06;;;;;;;3.77;1.50;;;17.60;99.90;;;;;;5053511;28;20204;-41
2022/08/27 02:55:32;;;;;;;2.70;1.20;;;17.60;99.90;;;;;;5053460;28;20172;-39
2022/08/27 02:57:58;;;;;;;4.30;1.40;;;17.60;99.90;;;;;;5053740;28;20179;-40
2022/08/27 03:00:28;;;;;;;5.13;1.50;;;17.50;99.90;;;;;;5053446;28;20168;-41
2022/08/27 03:02:56;;;;;;;6.37;1.70;;;17.60;99.90;;;;;;5053580;28;20214;-40
2022/08/27 03:05:25;;;;;;;3.67;1.73;;;17.50;99.90;;;;;;5035465;28;20180;-40
2022/08/27 03:07:50;;;;;;;3.97;1.27;;;17.50;99.90;;;;;;5053273;28;20203;-41
2022/08/27 03:10:20;;;;;;;4.37;1.30;;;17.50;99.90;;;;;;5053256;28;20211;-41
2022/08/27 03:12:46;;;;;;;3.93;1.33;;;17.60;99.90;;;;;;5052974;28;20262;-41
2022/08/27 03:15:16;;;;;;;2.70;1.10;;;17.60;99.90;;;;;;5053366;28;20185;-41
2022/08/27 03:20:32;;;;;;;4.23;1.67;;;17.50;99.90;;;;;;5053647;28;20163;-39
2022/08/27 03:23:02;;;;;;;3.57;1.33;;;17.50;99.90;;;;;;5053388;28;20640;-40
2022/08/27 03:25:28;;;;;;;5.20;1.37;;;17.50;99.90;;;;;;5053345;28;20177;-41
2022/08/27 03:27:53;;;;;;;5.43;1.87;;;17.50;99.90;;;;;;5053339;28;20203;-41
2022/08/27 03:30:21;;;;;;;5.43;1.40;;;17.50;99.90;;;;;;5057513;28;20195;-44
2022/08/27 03:32:47;;;;;;;4.50;1.87;;;17.50;99.90;;;;;;5063137;28;20647;-45
2022/08/27 03:35:14;;;;;;;3.40;1.50;;;17.50;99.90;;;;;;5062861;28;20253;-44
2022/08/27 03:37:39;;;;;;;4.00;1.73;;;17.50;99.90;;;;;;5062979;28;20183;-45
2022/08/27 03:40:06;;;;;;;4.90;1.23;;;17.50;99.90;;;;;;5062642;28;20652;-45
2022/08/27 03:42:33;;;;;;;4.20;1.40;;;17.50;99.90;;;;;;5062392;28;20200;-45
2022/08/27 03:44:59;;;;;;;5.17;1.33;;;17.50;99.90;;;;;;5062200;28;20275;-44
2022/08/27 03:47:24;;;;;;;6.27;1.70;;;17.50;99.90;;;;;;5062162;28;20207;-44
2022/08/27 03:49:50;;;;;;;4.67;1.60;;;17.50;99.90;;;;;;5062491;28;20180;-44
2022/08/27 03:52:16;;;;;;;4.80;1.33;;;17.50;99.90;;;;;;5062310;28;20203;-44
2022/08/27 03:54:42;;;;;;;4.10;1.40;;;17.40;99.90;;;;;;5062364;28;20212;-45
2022/08/27 03:57:07;;;;;;;3.03;1.23;;;17.40;99.90;;;;;;5062484;28;20183;-45
2022/08/27 03:59:34;;;;;;;7.20;1.73;;;17.40;99.90;;;;;;5062126;28;20226;-44
2022/08/27 04:02:00;;;;;;;5.07;1.60;;;17.40;99.90;;;;;;5062938;28;20205;-44
2022/08/27 04:04:26;;;;;;;3.17;1.63;;;17.40;99.90;;;;;;5044394;28;20694;-45
2022/08/27 04:06:52;;;;;;;5.93;1.70;;;17.40;99.90;;;;;;5062725;28;20184;-45
2022/08/27 04:09:18;;;;;;;5.47;1.67;;;17.40;99.90;;;;;;5062336;28;20176;-45
2022/08/27 04:11:44;;;;;;;3.97;1.40;;;17.50;99.90;;;;;;5061145;28;20196;-44
2022/08/27 04:14:09;;;;;;;5.10;1.50;;;17.50;99.90;;;;;;5061778;28;20271;-44
2022/08/27 04:16:36;;;;;;;7.00;2.07;;;17.40;99.90;;;;;;5065178;28;20223;-44
2022/08/27 04:19:02;;;;;;;4.73;1.70;;;17.40;99.90;;;;;;5066116;28;20230;-45
2022/08/27 04:21:28;;;;;;;5.57;1.60;;;17.40;99.90;;;;;;5065145;28;20188;-44
2022/08/27 04:23:55;;;;;;;6.90;1.80;;;17.40;99.90;;;;;;5048917;28;20277;-44
2022/08/27 04:26:21;;;;;;;6.13;1.80;;;17.40;99.90;;;;;;5063741;28;20172;-44
2022/08/27 04:28:47;;;;;;;3.93;1.43;;;17.40;99.90;;;;;;5063078;28;20184;-42
2022/08/27 04:31:13;;;;;;;5.10;1.87;;;17.40;99.90;;;;;;5062757;28;20557;-43
2022/08/27 04:33:40;;;;;;;9.97;1.80;;;17.40;99.90;;;;;;5063450;28;20210;-45
2022/08/27 04:36:07;;;;;;;4.03;1.40;;;17.40;99.90;;;;;;5062477;28;20176;-45
2022/08/27 04:38:33;;;;;;;4.67;1.50;;;17.40;99.90;;;;;;5063065;28;20287;-44
2022/08/27 04:41:18;;;;;;;3.77;1.33;;;17.40;99.90;;;;;;5063470;28;20652;-46
2022/08/27 04:43:48;;;;;;;4.07;1.83;;;17.40;99.90;;;;;;5063053;28;20217;-44
2022/08/27 04:46:19;;;;;;;2.90;1.40;;;17.40;99.90;;;;;;5063150;28;20204;-44
2022/08/27 04:48:45;;;;;;;4.80;1.90;;;17.40;99.90;;;;;;5062502;28;20169;-44
2022/08/27 04:51:10;;;;;;;5.57;1.60;;;17.40;99.90;;;;;;5062492;28;20579;-44
2022/08/27 04:53:36;;;;;;;5.03;1.50;;;17.40;99.90;;;;;;5063294;28;20731;-45
2022/08/27 04:56:02;;;;;;;4.30;1.80;;;17.40;99.90;;;;;;5063214;28;20180;-44
2022/08/27 04:58:27;;;;;;;4.67;1.67;;;17.40;99.90;;;;;;5044594;28;20180;-44
2022/08/27 05:00:58;;;;;;;6.70;1.60;;;17.40;99.90;;;;;;5063097;28;20208;-44
2022/08/27 05:03:24;;;;;;;8.17;1.93;;;17.40;99.90;;;;;;5062909;28;20192;-44
2022/08/27 05:05:52;;;;;;;6.63;1.60;;;17.40;99.90;;;;;;5062381;28;20250;-42
2022/08/27 05:08:19;;;;;;;3.23;1.53;;;17.40;99.90;;;;;;5061418;28;20239;-44
2022/08/27 05:10:47;;;;;;;6.33;1.67;;;17.40;99.90;;;;;;5056297;28;20208;-42
2022/08/27 05:13:13;;;;;;;6.07;2.00;;;17.40;99.90;;;;;;5056886;28;20204;-44
2022/08/27 05:15:39;;;;;;;5.97;2.27;;;17.40;99.90;;;;;;5055992;28;20196;-44
2022/08/27 05:18:07;;;;;;;7.73;2.10;;;17.40;99.90;;;;;;5055568;28;20653;-44
2022/08/27 05:20:39;;;;;;;2.90;1.73;;;17.40;99.90;;;;;;5055241;28;20181;-43
2022/08/27 05:23:05;;;;;;;5.03;1.60;;;17.30;99.90;;;;;;5055254;28;20172;-43
2022/08/27 05:25:30;;;;;;;8.60;2.20;;;17.40;99.90;;;;;;5055367;28;20176;-43
2022/08/27 05:27:56;;;;;;;8.60;1.80;;;17.30;99.90;;;;;;5055125;28;20660;-43
2022/08/27 05:30:22;;;;;;;3.73;1.60;;;17.40;99.90;;;;;;5055139;28;20230;-42
2022/08/27 05:32:48;;;;;;;3.27;1.50;;;17.30;99.90;;;;;;5037208;28;20180;-44
2022/08/27 05:35:13;;;;;;;5.87;1.60;;;17.30;99.90;;;;;;5055301;28;20173;-44
2022/08/27 05:37:39;;;;;;;6.43;1.63;;;17.30;99.90;;;;;;5055317;28;20188;-44
2022/08/27 05:40:05;;;;;;;6.97;1.83;;;17.30;99.90;;;;;;5055281;28;20624;-43
2022/08/27 05:42:32;;;;;;;4.07;1.30;;;17.30;99.90;;;;;;5037071;28;20206;-43
2022/08/27 05:44:57;;;;;;;6.27;2.03;;;17.20;99.90;;;;;;5055131;28;20271;-43
2022/08/27 05:47:23;;;;;;;5.43;1.60;;;17.20;99.90;;;;;;5054843;28;20215;-44
2022/08/27 05:49:53;;;;;;;8.50;1.70;;;17.20;99.90;;;;;;5055057;28;20188;-43
2022/08/27 05:52:20;;;;;;;3.73;1.70;;;17.20;99.90;;;;;;5054561;28;20220;-42
2022/08/27 05:54:46;;;;;;;6.47;1.53;;;17.20;99.90;;;;;;5036671;28;20672;-43
2022/08/27 05:57:11;;;;;;;9.50;2.13;;;17.10;99.90;;;;;;5054844;28;20177;-43
2022/08/27 06:02:21;;;;;;;6.63;1.67;;;17.00;99.90;;;;;;5054451;28;20573;-43
2022/08/27 06:04:47;;;;;;;8.20;1.63;;;17.00;99.90;;;;;;5054714;28;20184;-44
2022/08/27 06:07:14;;;;;;;4.73;1.93;;;17.00;99.90;;;;;;5054540;28;20181;-43
2022/08/27 06:09:39;;;;;;;3.87;1.77;;;16.90;99.90;;;;;;5054455;28;20184;-43
2022/08/27 06:12:06;;;;;;;2.83;1.40;;;16.90;99.90;;;;;;5054405;28;20644;-43
2022/08/27 06:14:32;;;;;;;10.30;1.70;;;16.90;99.90;;;;;;5054745;28;20207;-42
2022/08/27 06:17:01;;;;;;;5.87;1.70;;;16.80;99.90;;;;;;5054191;28;20195;-42
2022/08/27 06:19:27;;;;;;;6.53;2.00;;;16.90;99.90;;;;;;5054373;28;20180;-44
2022/08/27 06:21:53;;;;;;;3.93;1.47;;;16.80;99.90;;;;;;5054313;28;20556;-43
2022/08/27 06:24:18;;;;;;;2.27;1.20;;;16.80;99.90;;;;;;5054547;28;20192;-42
2022/08/27 06:26:44;;;;;;;5.57;1.50;;;16.70;99.90;;;;;;5054182;28;20195;-42
2022/08/27 06:29:11;;;;;;;2.93;1.40;;;16.70;99.90;;;;;;5054443;28;20188;-44
2022/08/27 06:31:38;;;;;;;3.57;1.57;;;16.70;99.90;;;;;;5054345;28;20216;-43
2022/08/27 06:34:06;;;;;;;5.53;1.73;;;16.70;99.90;;;;;;5054035;28;20232;-44
2022/08/27 06:36:35;;;;;;;4.17;1.53;;;16.70;99.90;;;;;;5054467;28;20172;-44
2022/08/27 06:39:00;;;;;;;6.00;1.67;;;16.70;99.90;;;;;;5053727;28;20585;-43
2022/08/27 06:41:27;;;;;;;3.87;1.67;;;16.80;99.90;;;;;;5055206;28;20204;-43
2022/08/27 06:43:54;;;;;;;5.40;1.90;;;16.80;99.90;;;;;;5055026;28;20699;-43
2022/08/27 06:46:22;;;;;;;4.90;1.87;;;16.80;99.90;;;;;;5055827;28;20191;-43
2022/08/27 06:48:52;;;;;;;5.97;1.53;;;16.90;99.90;;;;;;5055221;28;20184;-44
2022/08/27 06:51:23;;;;;;;5.03;1.23;;;16.90;99.90;;;;;;5053709;28;20246;-43
2022/08/27 06:53:49;;;;;;;3.83;1.63;;;16.90;99.90;;;;;;5053627;28;20207;-43
2022/08/27 06:56:16;;;;;;;4.77;1.47;;;16.90;99.90;;;;;;5053934;28;20703;-43
2022/08/27 06:58:42;;;;;;;4.93;1.50;;;16.90;99.90;;;;;;5053877;28;20187;-44
2022/08/27 07:01:23;;;;;;;4.83;1.57;;;17.00;99.90;;;;;;5053536;28;20200;-45
2022/08/27 07:03:49;;;;;;;9.97;1.77;;;17.00;99.90;;;;;;5053638;28;20168;-45
2022/08/27 07:06:16;;;;;;;5.10;1.40;;;17.00;99.90;;;;;;5053546;28;20184;-44
2022/08/27 07:08:42;;;;;;;3.00;1.40;;;17.00;99.90;;;;;;5053844;28;20190;-45
2022/08/27 07:11:10;;;;;;;5.13;1.87;;;17.00;99.90;;;;;;5054176;28;20722;-43
2022/08/27 07:13:37;;;;;;;3.67;1.57;;;17.00;99.90;;;;;;5053829;28;20285;-44
2022/08/27 07:16:04;;;;;;;2.90;1.47;;;17.00;99.90;;;;;;5019763;28;20710;-43
2022/08/27 07:18:30;;;;;;;6.33;1.63;;;17.00;99.90;;;;;;5036781;28;20180;-42
2022/08/27 07:20:55;;;;;;;5.80;1.30;;;17.00;99.90;;;;;;5056166;28;20188;-43
2022/08/27 07:23:21;;;;;;;5.17;1.47;;;17.00;99.90;;;;;;5056051;28;20255;-42
2022/08/27 07:25:47;;;;;;;4.57;1.67;;;16.90;99.90;;;;;;5055120;28;20218;-43
2022/08/27 07:28:13;;;;;;;4.87;1.67;;;17.00;99.90;;;;;;5054089;28;20238;-43
2022/08/27 07:30:39;;;;;;;3.40;1.50;;;16.90;99.90;;;;;;5053850;28;20426;-43
2022/08/27 07:33:05;;;;;;;4.43;1.77;;;16.90;99.90;;;;;;5053769;28;20551;-44
2022/08/27 07:35:30;;;;;;;4.77;1.50;;;17.00;99.90;;;;;;5053404;28;20184;-45
2022/08/27 07:37:56;;;;;;;3.60;1.20;;;16.90;99.90;;;;;;5053360;28;20191;-44
2022/08/27 07:40:23;;;;;;;6.77;2.50;;;16.90;99.90;;;;;;5053390;28;20226;-44
2022/08/27 07:45:33;;;;;;;4.47;1.50;;;16.90;99.90;;;;;;5053413;28;20643;-43
2022/08/27 07:47:59;;;;;;;5.77;1.80;;;16.80;99.90;;;;;;5053013;28;20180;-44
2022/08/27 07:50:25;;;;;;;4.60;1.50;;;16.80;99.90;;;;;;5056470;28;20232;-43
2022/08/27 07:52:51;;;;;;;7.40;1.77;;;16.80;99.90;;;;;;5057243;28;20648;-42
2022/08/27 07:55:17;;;;;;;5.00;1.40;;;16.80;99.90;;;;;;5057576;28;20180;-43
2022/08/27 07:57:44;;;;;;;6.43;1.63;;;16.80;99.90;;;;;;5039338;28;20330;-42
2022/08/27 08:00:11;;;;;;;5.23;1.73;;;16.90;99.90;;;;;;5038906;28;20180;-43
2022/08/27 08:02:37;;;;;;;5.63;1.70;;;16.80;99.90;;;;;;5057382;28;20671;-44
2022/08/27 08:05:05;;;;;;;5.13;1.53;;;16.80;99.90;;;;;;5057125;28;20609;-43
2022/08/27 08:07:32;;;;;;;4.13;1.60;;;16.90;99.90;;;;;;5057072;28;20216;-43
2022/08/27 08:09:58;;;;;;;4.70;1.50;;;16.90;99.90;;;;;;5056702;28;20180;-43
2022/08/27 08:12:23;;;;;;;4.07;1.60;;;16.90;99.90;;;;;;5056893;28;20219;-44
2022/08/27 08:14:49;;;;;;;4.90;1.50;;;16.90;99.90;;;;;;5056931;28;20215;-43
2022/08/27 08:17:14;;;;;;;6.60;1.63;;;16.90;99.90;;;;;;5056417;28;20196;-42
2022/08/27 08:19:40;;;;;;;3.13;1.27;;;17.00;99.90;;;;;;5038692;28;20589;-44
2022/08/27 08:22:06;;;;;;;3.27;1.50;;;17.00;99.90;;;;;;5056681;28;20265;-44
2022/08/27 08:24:35;;;;;;;4.60;1.30;;;17.00;99.90;;;;;;5056650;28;20181;-43
2022/08/27 08:27:00;;;;;;;4.63;1.50;;;17.10;99.90;;;;;;5056736;28;20243;-43
2022/08/27 08:29:26;;;;;;;6.77;1.70;;;17.00;99.90;;;;;;5056543;28;20271;-44
2022/08/27 08:31:52;;;;;;;3.10;1.70;;;17.00;99.90;;;;;;5056250;28;20199;-43
2022/08/27 08:34:18;;;;;;;3.43;1.13;;;17.00;99.90;;;;;;5057255;28;20204;-43
2022/08/27 08:36:44;;;;;;;3.30;1.20;;;17.00;99.90;;;;;;5057572;28;20520;-42
2022/08/27 08:39:10;;;;;;;4.23;1.50;;;17.00;99.90;;;;;;5058007;28;20597;-43
2022/08/27 08:41:47;;;;;;;4.33;1.50;;;17.00;99.90;;;;;;5056042;28;20204;-44
2022/08/27 08:44:12;;;;;;;2.07;1.30;;;17.00;99.90;;;;;;5056225;28;20170;-41
2022/08/27 08:46:47;;;;;;;5.70;1.60;;;17.00;99.90;;;;;;5055989;28;20271;-43
2022/08/27 08:49:28;;;;;;;2.97;1.53;;;17.00;99.90;;;;;;5038172;28;20614;-44
2022/08/27 08:52:03;;;;;;;5.40;2.07;;;17.00;99.90;;;;;;5056187;28;20218;-44
2022/08/27 08:54:32;;;;;;;4.00;1.57;;;17.10;99.90;;;;;;5058179;28;20648;-46
2022/08/27 08:57:04;;;;;;;4.87;1.83;;;17.00;99.90;;;;;;5045326;28;20716;-45
2022/08/27 08:59:37;;;;;;;6.53;1.77;;;17.10;99.90;;;;;;5063311;28;20176;-43
2022/08/27 09:02:09;;;;;;;3.97;1.87;;;17.00;99.90;;;;;;5062458;28;20196;-45
2022/08/27 09:04:35;;;;;;;5.20;2.00;;;17.00;99.90;;;;;;5062848;28;20651;-43
2022/08/27 09:07:13;;;;;;;4.77;1.73;;;17.10;99.90;;;;;;5062634;28;20186;-44
2022/08/27 09:09:44;;;;;;;4.87;1.33;;;17.10;99.90;;;;;;5063658;28;20172;-44
2022/08/27 09:12:17;;;;;;;3.03;1.73;;;17.10;99.90;;;;;;5063303;28;20231;-43
2022/08/27 09:14:49;;;;;;;3.70;1.77;;;17.10;99.90;;;;;;5063066;28;20640;-44
2022/08/27 09:17:15;;;;;;;8.77;1.77;;;17.10;99.90;;;;;;5045631;28;20200;-45
2022/08/27 09:19:41;;;;;;;6.83;1.70;;;17.30;99.90;;;;;;5063059;28;20187;-46
2022/08/27 09:22:23;;;;;;;3.17;1.60;;;17.20;99.90;;;;;;5062849;28;20218;-44
2022/08/27 09:25:16;;;;;;;8.57;2.20;;;17.30;99.90;;;;;;5062868;28;20169;-44
2022/08/27 09:27:42;;;;;;;7.50;1.57;;;17.30;99.90;;;;;;5062405;28;20190;-45
2022/08/27 09:30:19;;;;;;;4.77;1.70;;;17.30;99.90;;;;;;5062827;28;20267;-45
2022/08/27 09:33:03;;;;;;;4.40;1.50;;;17.40;99.90;;;;;;5063322;28;20203;-45
2022/08/27 09:35:41;;;;;;;3.73;1.63;;;17.40;99.90;;;;;;5063098;28;20168;-45
2022/08/27 09:38:08;;;;;;;8.07;1.70;;;17.50;99.90;;;;;;5063548;28;20179;-44
2022/08/27 09:40:49;;;;;;;3.57;1.60;;;17.50;99.90;;;;;;5063081;28;20236;-44
2022/08/27 09:43:14;;;;;;;3.67;1.70;;;17.50;99.90;;;;;;5040163;28;20532;-38
2022/08/27 09:45:51;;;;;;;4.63;1.53;;;17.60;99.90;;;;;;5054993;28;20267;-39
2022/08/27 09:48:27;;;;;;;7.37;1.77;;;17.60;99.90;;;;;;5037256;28;20660;-40
2022/08/27 09:51:18;;;;;;;3.50;1.70;;;17.60;99.90;;;;;;5055322;28;20560;-40
2022/08/27 09:53:57;;;;;;;4.93;1.57;;;17.70;99.90;;;;;;5055035;28;20199;-41
2022/08/27 09:56:25;;;;;;;3.90;1.60;;;17.70;99.90;;;;;;5054850;28;20202;-41
2022/08/27 09:59:06;;;;;;;3.73;1.53;;;17.80;99.90;;;;;;5054632;28;20644;-40
2022/08/27 10:02:03;;;;;;;2.13;1.20;;;17.80;99.90;;;;;;5054407;28;20227;-41
2022/08/27 10:04:42;;;;;;;2.20;1.47;;;17.80;99.90;;;;;;5048389;28;20272;-42
2022/08/27 10:07:30;;;;;;;7.40;1.50;;;17.90;99.90;;;;;;5054999;28;20622;-41
2022/08/27 10:10:21;;;;;;;10.23;2.10;;;17.90;99.90;;;;;;5054444;28;20252;-40
2022/08/27 10:12:57;;;;;;;3.43;1.70;;;18.00;99.90;;;;;;5015496;28;20212;-41
2022/08/27 10:15:32;;;;;;;4.13;1.60;;;18.10;99.90;;;;;;5054545;28;20196;-39
2022/08/27 10:18:50;;;;;;;3.43;1.50;;;18.20;99.90;;;;;;5055489;28;20168;-39
2022/08/27 10:21:40;;;;;;;4.77;1.57;;;18.20;99.90;;;;;;5009969;28;20292;-39
2022/08/27 10:24:21;;;;;;;1.90;1.23;;;18.40;99.90;;;;;;5054288;28;20736;-40
2022/08/27 10:27:34;;;;;;;5.77;1.87;;;18.50;99.90;;;;;;5054580;28;20171;-40
2022/08/27 10:30:24;;;;;;;4.40;1.57;;;18.60;99.90;;;;;;4973033;28;20187;-40
2022/08/27 10:33:09;;;;;;;3.73;2.00;;;18.70;99.90;;;;;;5051063;28;20279;-40
2022/08/27 10:35:39;;;;;;;6.67;1.70;;;18.80;99.90;;;;;;5054159;28;20222;-41
2022/08/27 10:38:23;;;;;;;3.87;1.60;;;18.80;99.90;;;;;;5036196;28;20546;-39
2022/08/27 10:40:57;;;;;;;2.80;1.70;;;18.90;99.90;;;;;;5053787;28;20196;-40
2022/08/27 10:43:36;;;;;;;11.30;1.80;;;18.90;99.90;;;;;;5054316;28;20195;-40
2022/08/27 10:46:33;;;;;;;4.07;1.57;;;19.00;99.90;;;;;;5053701;28;20156;-41
2022/08/27 10:49:21;;;;;;;5.77;1.80;;;19.10;99.90;;;;;;5035759;28;20267;-41
2022/08/27 10:52:12;;;;;;;3.73;1.17;;;19.00;99.90;;;;;;5053903;28;20653;-41
2022/08/27 10:54:51;;;;;;;4.57;1.50;;;19.10;99.90;;;;;;5015760;28;20607;-40
2022/08/27 10:57:23;;;;;;;3.40;1.40;;;19.20;99.90;;;;;;5053820;28;20188;-42
2022/08/27 10:59:58;;;;;;;4.27;1.50;;;19.20;99.90;;;;;;5053940;28;20165;-40
2022/08/27 11:02:45;;;;;;;4.20;1.40;;;19.20;99.90;;;;;;5053697;28;20195;-39
2022/08/27 11:05:15;;;;;;;4.87;1.80;;;19.30;99.90;;;;;;5053732;28;20215;-40
2022/08/27 11:07:46;;;;;;;7.13;1.70;;;19.40;99.90;;;;;;5053299;28;20702;-41
2022/08/27 11:10:20;;;;;;;2.43;1.37;;;19.40;99.90;;;;;;5053422;28;20168;-41
2022/08/27 11:12:50;;;;;;;4.70;1.40;;;19.50;99.90;;;;;;5053566;28;20200;-40
2022/08/27 11:15:33;;;;;;;4.00;1.40;;;19.50;99.90;;;;;;5053363;28;20208;-41
2022/08/27 11:18:17;;;;;;;3.53;1.70;;;19.60;99.90;;;;;;5053479;28;20188;-40
2022/08/27 11:20:52;;;;;;;7.77;2.10;;;19.70;99.90;;;;;;5053567;28;20721;-40
2022/08/27 11:23:23;;;;;;;4.90;1.80;;;19.80;99.90;;;;;;5053570;28;20699;-40
2022/08/27 11:25:58;;;;;;;1.80;1.40;;;19.80;99.90;;;;;;5061971;28;20164;-45
2022/08/27 11:28:37;;;;;;;4.57;1.60;;;19.90;99.90;;;;;;5063629;28;20163;-46
2022/08/27 11:31:28;;;;;;;3.43;1.80;;;20.00;99.90;;;;;;5063275;28;20196;-45
2022/08/27 11:34:20;;;;;;;3.03;1.20;;;20.10;99.90;;;;;;5063623;28;20196;-44
2022/08/27 11:37:12;;;;;;;2.57;1.10;;;20.10;99.90;;;;;;5064028;28;20191;-45
2022/08/27 11:39:40;;;;;;;2.10;1.23;;;20.10;99.90;;;;;;5064951;28;20153;-45
2022/08/27 11:42:34;;;;;;;3.37;1.40;;;20.20;99.90;;;;;;5064288;28;20567;-45
2022/08/27 11:45:07;;;;;;;3.33;1.50;;;20.20;99.90;;;;;;5062876;28;20161;-45
2022/08/27 11:47:32;;;;;;;2.67;1.10;;;20.20;99.90;;;;;;5062437;28;20164;-43
2022/08/27 11:50:07;;;;;;;35.27;3.30;;;20.20;99.90;;;;;;5062798;28;20182;-43
2022/08/27 11:52:38;;;;;;;14.93;2.57;;;20.30;99.90;;;;;;5061976;28;20199;-45
2022/08/27 11:55:27;;;;;;;3.60;1.73;;;20.40;99.90;;;;;;5061599;28;20668;-45
2022/08/27 11:58:16;;;;;;;2.83;1.80;;;20.40;99.90;;;;;;5061507;28;20168;-44
2022/08/27 12:00:43;;;;;;;3.67;1.37;;;20.50;99.90;;;;;;5061360;28;20194;-44
2022/08/27 12:03:21;;;;;;;3.50;1.50;;;20.60;99.90;;;;;;5061549;28;20172;-45
2022/08/27 12:06:06;;;;;;;3.97;1.63;;;20.60;99.90;;;;;;5062690;28;20607;-44
2022/08/27 12:08:33;;;;;;;8.67;2.13;;;20.60;99.90;;;;;;5045475;28;20671;-45
2022/08/27 12:11:02;;;;;;;3.73;1.50;;;20.60;99.90;;;;;;5044401;28;20204;-44
2022/08/27 12:13:40;;;;;;;4.40;1.47;;;20.70;99.90;;;;;;5062477;28;20208;-44
2022/08/27 12:16:14;;;;;;;6.23;2.10;;;20.80;99.90;;;;;;5061931;28;20223;-46
2022/08/27 12:18:52;;;;;;;5.17;1.40;;;20.90;99.90;;;;;;5044029;28;20164;-45
2022/08/27 12:21:31;;;;;;;4.90;1.57;;;20.90;99.90;;;;;;5062512;28;20200;-45
2022/08/27 12:24:42;;;;;;;3.77;1.80;;;20.90;99.90;;;;;;5062272;28;20263;-46
2022/08/27 12:27:36;;;;;;;2.93;1.70;;;20.90;99.90;;;;;;5062662;28;20263;-45
2022/08/27 12:30:48;;;;;;;4.40;1.60;;;21.00;99.90;;;;;;5062137;28;20175;-45
2022/08/27 12:33:34;;;;;;;2.93;1.50;;;21.10;99.90;;;;;;4980467;28;20182;-45
2022/08/27 12:36:24;;;;;;;5.43;1.40;;;21.10;99.90;;;;;;4981657;28;20187;-45
2022/08/27 12:38:53;;;;;;;3.13;1.70;;;21.10;99.90;;;;;;5026618;28;20198;-41
2022/08/27 12:41:31;;;;;;;6.63;1.93;;;21.30;99.90;;;;;;5056107;28;20196;-41
2022/08/27 12:44:21;;;;;;;3.50;1.43;;;21.30;99.90;;;;;;5056257;28;20167;-42
2022/08/27 12:47:10;;;;;;;5.23;1.30;;;21.30;99.90;;;;;;5056119;28;20243;-41
2022/08/27 12:49:55;;;;;;;3.27;1.37;;;21.30;99.90;;;;;;5056321;28;20196;-41
2022/08/27 12:52:48;;;;;;;4.07;1.60;;;21.30;99.90;;;;;;5056259;28;20266;-41
2022/08/27 12:55:38;;;;;;;2.43;1.20;;;21.20;99.90;;;;;;5056074;28;20205;-41
2022/08/27 12:58:29;;;;;;;4.37;1.30;;;21.10;99.90;;;;;;5055838;28;20176;-39
2022/08/27 13:01:16;;;;;;;4.83;1.40;;;21.20;99.90;;;;;;5055671;28;20228;-41
2022/08/27 13:03:52;;;;;;;2.90;1.47;;;21.20;99.90;;;;;;5055790;28;20175;-41
2022/08/27 13:06:28;;;;;;;3.10;1.70;;;21.20;99.90;;;;;;5056230;28;20160;-42
2022/08/27 13:08:56;;;;;;;3.07;1.40;;;21.20;99.90;;;;;;5055945;28;20176;-42
2022/08/27 13:11:46;;;;;;;9.03;1.50;;;21.20;99.90;;;;;;5055790;28;20204;-41
2022/08/27 13:14:18;;;;;;;3.30;1.50;;;21.20;99.90;;;;;;5044629;28;20560;-41
2022/08/27 13:17:01;;;;;;;3.40;1.60;;;21.10;99.90;;;;;;5055404;28;20180;-39
2022/08/27 13:19:42;;;;;;;2.80;1.40;;;21.20;99.90;;;;;;5055860;28;20160;-40